Main page
METAR-TAF:

METAR-TAF

Airports :

Koksijde Air Base

Koksijde, Belgium

latitude: 51-05N, longitude: 002-39E, elevation: 4 m

Current weather observation

The report was made 26 minutes ago, at 20:55 UTC
Wind 5 kt from the South/Southwest
Temperature 9°C
Humidity 87%
Pressure 1028 hPa
Visibility: 9000 m

METAR: EBFN 132055Z AUTO 20005KT 9000 NCD 09/07 Q1028 BLU

Time: 22:21 (21:21 UTC)

Forecast

The report was made 5 hours and 40 minutes ago, at 15:41 UTC
Forecast valid from 13 at 19 UTC to 14 at 07 UTC
Wind 10 kt from the Southwest
Visibility 10 km or more
Few clouds at a height of 2000 ft
Probability 30% :
Temporary
from 13 at 19 UTC to 14 at 00 UTC
Scattered clouds at a height of 2000 ft
Probability 30% :
Temporary
from 14 at 02 UTC to 14 at 07 UTC
Visibility: 2000 m
mist

TAF: EBFN 131541Z 1319/1407 22010KT 9999 FEW020 PROB30 TEMPO 1319/1400 SCT020 PROB30 TEMPO 1402/1407 2000 BR

Weather observations and forecasts of more than 4000 airports (METAR and TAF reports).

The available stations are represented by yellow and red dots on the map.

Hover mouse over dot to see the name of the station.

Then click to see weather observations and forecasts.

To change the map : click on the green buttons with a black cross to zoom in, on the green button with a dash to zoom out, or on the green arrows for adjacent maps.


METAR-TAF: